KDXR/DXR METAR and TAF weather

Enter ICAO airport designator
Station Type Date Time Source
KDXR METAR 2019/08/22 14:53 UTC NOAA

KDXR 221453Z 30007KT 10SM CLR 28/19 A2989 RMK AO2 SLP119 T02780194 52003


Station Type Date Time Source
KDXR Decoded METAR 2019/08/22 14:53 UTC NOAA

Station name not available
Aug 22, 2019 - 10:53 AM EDT / 2019.08.22 1453 UTC
Wind: from the WNW (300 degrees) at 8 MPH (7 KT):0
Visibility: 10 mile(s):0
Sky conditions: clear
Temperature: 82.0 F (27.8 C)
Dew Point: 66.9 F (19.4 C)
Relative Humidity: 60%
Pressure (altimeter): 29.89 in. Hg (1012 hPa)
Pressure tendency: 0.01 inches (0.3 hPa) higher than three hours ago
ob: KDXR 221453Z 30007KT 10SM CLR 28/19 A2989 RMK AO2 SLP119 T02780194 52003
cycle: 15

Station Type Date Time Source
KDXR TAF UTC NOAA

Error!

Example: see airport list